sensor_id;sensor_type;location;lat;lon;timestamp;pressure;altitude;pressure_sealevel;temperature;humidity
44872;BME280;30602;51.060;17.226;2023-07-02T00:00:41;100377.98;;;17.09;96.23
44872;BME280;30602;51.060;17.226;2023-07-02T00:04:20;100388.83;;;17.13;95.20
44872;BME280;30602;51.060;17.226;2023-07-02T00:08:30;100388.37;;;17.19;93.71
44872;BME280;30602;51.060;17.226;2023-07-02T00:13:00;100390.60;;;17.19;96.10
44872;BME280;30602;51.060;17.226;2023-07-02T00:16:53;100392.25;;;17.18;94.83
44872;BME280;30602;51.060;17.226;2023-07-02T00:20:50;100395.63;;;17.23;91.71
44872;BME280;30602;51.060;17.226;2023-07-02T00:24:44;100394.31;;;17.29;92.10
44872;BME280;30602;51.060;17.226;2023-07-02T00:28:08;100398.40;;;17.30;93.03
44872;BME280;30602;51.060;17.226;2023-07-02T00:35:25;100397.85;;;17.33;89.89
44872;BME280;30602;51.060;17.226;2023-07-02T00:38:50;100396.57;;;17.40;90.01
44872;BME280;30602;51.060;17.226;2023-07-02T00:42:17;100399.63;;;17.48;88.83
44872;BME280;30602;51.060;17.226;2023-07-02T00:45:41;100396.40;;;17.50;88.25
44872;BME280;30602;51.060;17.226;2023-07-02T00:49:25;100395.95;;;17.53;88.65
44872;BME280;30602;51.060;17.226;2023-07-02T00:52:56;100399.43;;;17.54;87.75
44872;BME280;30602;51.060;17.226;2023-07-02T00:56:21;100397.89;;;17.60;86.82
44872;BME280;30602;51.060;17.226;2023-07-02T00:59:49;100401.56;;;17.68;86.61
44872;BME280;30602;51.060;17.226;2023-07-02T01:03:33;100395.95;;;17.77;85.77
44872;BME280;30602;51.060;17.226;2023-07-02T01:07:29;100395.23;;;17.89;84.00
44872;BME280;30602;51.060;17.226;2023-07-02T01:11:27;100394.75;;;17.99;83.72
44872;BME280;30602;51.060;17.226;2023-07-02T01:15:09;100390.80;;;18.03;83.68
44872;BME280;30602;51.060;17.226;2023-07-02T01:19:21;100389.50;;;18.07;83.54
44872;BME280;30602;51.060;17.226;2023-07-02T01:22:55;100393.80;;;18.17;82.93
44872;BME280;30602;51.060;17.226;2023-07-02T01:27:13;100391.02;;;18.27;82.48
44872;BME280;30602;51.060;17.226;2023-07-02T01:30:58;100394.54;;;18.30;83.15
44872;BME280;30602;51.060;17.226;2023-07-02T01:34:22;100389.51;;;18.29;82.43
44872;BME280;30602;51.060;17.226;2023-07-02T01:37:45;100389.62;;;18.31;82.78
44872;BME280;30602;51.060;17.226;2023-07-02T01:41:55;100382.80;;;18.31;82.77
44872;BME280;30602;51.060;17.226;2023-07-02T01:45:12;100381.54;;;18.38;83.54
44872;BME280;30602;51.060;17.226;2023-07-02T01:48:33;100385.12;;;18.31;84.08
44872;BME280;30602;51.060;17.226;2023-07-02T01:51:56;100385.35;;;18.35;84.14
44872;BME280;30602;51.060;17.226;2023-07-02T01:55:53;100385.23;;;18.31;83.79
44872;BME280;30602;51.060;17.226;2023-07-02T01:59:48;100389.11;;;18.32;83.49
44872;BME280;30602;51.060;17.226;2023-07-02T02:03:30;100393.54;;;18.30;83.65
44872;BME280;30602;51.060;17.226;2023-07-02T02:07:16;100396.16;;;18.33;83.98
44872;BME280;30602;51.060;17.226;2023-07-02T02:10:35;100397.51;;;18.29;84.27
44872;BME280;30602;51.060;17.226;2023-07-02T02:14:17;100398.47;;;18.28;84.30
44872;BME280;30602;51.060;17.226;2023-07-02T02:17:41;100405.64;;;18.28;84.53
44872;BME280;30602;51.060;17.226;2023-07-02T02:21:23;100409.98;;;18.33;84.35
44872;BME280;30602;51.060;17.226;2023-07-02T02:24:45;100408.67;;;18.35;84.61
44872;BME280;30602;51.060;17.226;2023-07-02T02:28:42;100408.36;;;18.38;84.68
44872;BME280;30602;51.060;17.226;2023-07-02T02:32:30;100411.64;;;18.40;84.91
44872;BME280;30602;51.060;17.226;2023-07-02T02:35:48;100418.41;;;18.38;84.99
44872;BME280;30602;51.060;17.226;2023-07-02T02:39:31;100413.55;;;18.35;85.36
44872;BME280;30602;51.060;17.226;2023-07-02T02:43:59;100418.58;;;18.35;86.15
44872;BME280;30602;51.060;17.226;2023-07-02T02:47:52;100422.80;;;18.36;86.28
44872;BME280;30602;51.060;17.226;2023-07-02T02:51:28;100425.10;;;18.33;87.36
44872;BME280;30602;51.060;17.226;2023-07-02T02:55:12;100429.62;;;18.29;87.92
44872;BME280;30602;51.060;17.226;2023-07-02T02:58:46;100432.19;;;18.23;88.37
44872;BME280;30602;51.060;17.226;2023-07-02T03:02:29;100433.13;;;18.20;88.72
44872;BME280;30602;51.060;17.226;2023-07-02T03:06:14;100428.99;;;18.18;88.42
44872;BME280;30602;51.060;17.226;2023-07-02T03:10:42;100433.70;;;18.23;89.01
44872;BME280;30602;51.060;17.226;2023-07-02T03:14:25;100427.36;;;18.23;88.71
44872;BME280;30602;51.060;17.226;2023-07-02T03:17:47;100424.35;;;18.19;89.63
44872;BME280;30602;51.060;17.226;2023-07-02T03:21:32;100422.02;;;18.18;89.68
44872;BME280;30602;51.060;17.226;2023-07-02T03:24:52;100424.88;;;18.20;90.43
44872;BME280;30602;51.060;17.226;2023-07-02T03:29:14;100427.05;;;18.20;90.20
44872;BME280;30602;51.060;17.226;2023-07-02T03:36:52;100429.48;;;18.25;89.86
44872;BME280;30602;51.060;17.226;2023-07-02T03:40:43;100430.33;;;18.27;90.18
44872;BME280;30602;51.060;17.226;2023-07-02T03:44:25;100430.87;;;18.25;90.42
44872;BME280;30602;51.060;17.226;2023-07-02T03:48:32;100436.20;;;18.28;90.59
44872;BME280;30602;51.060;17.226;2023-07-02T03:52:07;100437.66;;;18.32;90.50
44872;BME280;30602;51.060;17.226;2023-07-02T03:55:58;100438.80;;;18.31;90.25
44872;BME280;30602;51.060;17.226;2023-07-02T04:00:04;100445.38;;;18.33;90.96
44872;BME280;30602;51.060;17.226;2023-07-02T04:03:31;100445.98;;;18.33;91.17
44872;BME280;30602;51.060;17.226;2023-07-02T04:07:19;100444.99;;;18.30;90.63
44872;BME280;30602;51.060;17.226;2023-07-02T04:15:39;100452.59;;;18.35;91.13
44872;BME280;30602;51.060;17.226;2023-07-02T04:19:35;100453.46;;;18.33;91.33
44872;BME280;30602;51.060;17.226;2023-07-02T04:23:01;100456.67;;;18.30;93.06
44872;BME280;30602;51.060;17.226;2023-07-02T04:26:45;100456.04;;;18.25;92.96
44872;BME280;30602;51.060;17.226;2023-07-02T04:30:12;100462.70;;;18.26;93.59
44872;BME280;30602;51.060;17.226;2023-07-02T04:34:37;100467.96;;;18.29;91.84
44872;BME280;30602;51.060;17.226;2023-07-02T04:38:23;100470.49;;;18.35;92.29
44872;BME280;30602;51.060;17.226;2023-07-02T04:42:27;100474.42;;;18.38;92.62
44872;BME280;30602;51.060;17.226;2023-07-02T04:46:21;100478.95;;;18.37;91.90
44872;BME280;30602;51.060;17.226;2023-07-02T04:49:42;100486.09;;;18.36;91.71
44872;BME280;30602;51.060;17.226;2023-07-02T04:53:35;100484.31;;;18.47;92.33
44872;BME280;30602;51.060;17.226;2023-07-02T04:56:58;100487.77;;;18.49;92.25
44872;BME280;30602;51.060;17.226;2023-07-02T05:00:41;100488.12;;;18.52;91.52
44872;BME280;30602;51.060;17.226;2023-07-02T05:04:24;100490.32;;;18.54;90.81
44872;BME280;30602;51.060;17.226;2023-07-02T05:07:50;100487.62;;;18.62;91.07
44872;BME280;30602;51.060;17.226;2023-07-02T05:11:30;100475.82;;;18.61;90.11
44872;BME280;30602;51.060;17.226;2023-07-02T05:15:15;100487.83;;;18.72;90.14
44872;BME280;30602;51.060;17.226;2023-07-02T05:18:38;100487.00;;;18.77;90.09
44872;BME280;30602;51.060;17.226;2023-07-02T05:22:21;100492.95;;;18.76;89.68
44872;BME280;30602;51.060;17.226;2023-07-02T05:25:44;100496.98;;;18.79;89.75
44872;BME280;30602;51.060;17.226;2023-07-02T05:30:03;100497.45;;;18.78;88.63
44872;BME280;30602;51.060;17.226;2023-07-02T05:34:13;100507.60;;;18.89;88.44
44872;BME280;30602;51.060;17.226;2023-07-02T05:38:11;100508.35;;;18.94;88.95
44872;BME280;30602;51.060;17.226;2023-07-02T05:41:47;100496.04;;;18.88;88.26
44872;BME280;30602;51.060;17.226;2023-07-02T05:45:12;100518.26;;;18.95;89.02
44872;BME280;30602;51.060;17.226;2023-07-02T05:48:34;100522.47;;;18.83;89.91
44872;BME280;30602;51.060;17.226;2023-07-02T05:52:41;100522.15;;;18.70;90.59
44872;BME280;30602;51.060;17.226;2023-07-02T05:56:05;100508.00;;;18.69;91.61
44872;BME280;30602;51.060;17.226;2023-07-02T05:59:27;100516.81;;;18.74;92.40
44872;BME280;30602;51.060;17.226;2023-07-02T06:02:51;100519.09;;;18.75;91.60
44872;BME280;30602;51.060;17.226;2023-07-02T06:06:17;100519.33;;;18.81;92.08
44872;BME280;30602;51.060;17.226;2023-07-02T06:14:24;100521.34;;;18.98;89.66
44872;BME280;30602;51.060;17.226;2023-07-02T06:18:30;100524.55;;;19.07;88.99
44872;BME280;30602;51.060;17.226;2023-07-02T06:22:44;100526.32;;;19.23;89.21
44872;BME280;30602;51.060;17.226;2023-07-02T06:26:27;100530.97;;;19.28;88.85
44872;BME280;30602;51.060;17.226;2023-07-02T06:30:55;100530.77;;;19.25;87.55
44872;BME280;30602;51.060;17.226;2023-07-02T06:34:37;100532.49;;;19.24;86.20
44872;BME280;30602;51.060;17.226;2023-07-02T06:38:32;100540.32;;;19.23;87.67
44872;BME280;30602;51.060;17.226;2023-07-02T06:42:10;100543.96;;;19.19;86.55
44872;BME280;30602;51.060;17.226;2023-07-02T06:45:51;100544.89;;;19.07;86.92
44872;BME280;30602;51.060;17.226;2023-07-02T06:50:09;100542.42;;;18.97;88.20
44872;BME280;30602;51.060;17.226;2023-07-02T06:54:13;100538.77;;;18.97;87.61
44872;BME280;30602;51.060;17.226;2023-07-02T06:58:37;100540.95;;;18.97;89.39
44872;BME280;30602;51.060;17.226;2023-07-02T07:03:16;100540.43;;;18.99;90.17
44872;BME280;30602;51.060;17.226;2023-07-02T07:07:29;100552.78;;;18.90;91.22
44872;BME280;30602;51.060;17.226;2023-07-02T07:11:02;100560.40;;;18.64;96.17
44872;BME280;30602;51.060;17.226;2023-07-02T07:14:56;100567.31;;;18.38;99.95
44872;BME280;30602;51.060;17.226;2023-07-02T07:19:11;100572.09;;;18.15;100.00
44872;BME280;30602;51.060;17.226;2023-07-02T07:22:54;100579.71;;;18.05;100.00
44872;BME280;30602;51.060;17.226;2023-07-02T07:26:18;100570.99;;;17.87;100.00
44872;BME280;30602;51.060;17.226;2023-07-02T07:29:43;100578.47;;;17.88;100.00
44872;BME280;30602;51.060;17.226;2023-07-02T07:33:18;100572.21;;;18.02;100.00
44872;BME280;30602;51.060;17.226;2023-07-02T07:37:04;100569.88;;;18.22;100.00
44872;BME280;30602;51.060;17.226;2023-07-02T07:40:58;100569.25;;;18.70;100.00
44872;BME280;30602;51.060;17.226;2023-07-02T07:45:16;100565.96;;;18.88;100.00
44872;BME280;30602;51.060;17.226;2023-07-02T07:48:55;100570.03;;;18.91;100.00
44872;BME280;30602;51.060;17.226;2023-07-02T07:52:48;100573.58;;;18.99;100.00
44872;BME280;30602;51.060;17.226;2023-07-02T07:57:19;100578.55;;;19.07;100.00
44872;BME280;30602;51.060;17.226;2023-07-02T08:01:13;100572.90;;;19.78;100.00
44872;BME280;30602;51.060;17.226;2023-07-02T08:04:59;100564.95;;;19.94;100.00
44872;BME280;30602;51.060;17.226;2023-07-02T08:08:22;100566.07;;;20.18;99.61
44872;BME280;30602;51.060;17.226;2023-07-02T08:12:06;100575.84;;;20.04;95.66
44872;BME280;30602;51.060;17.226;2023-07-02T08:16:17;100574.70;;;20.00;94.30
44872;BME280;30602;51.060;17.226;2023-07-02T08:20:42;100579.93;;;19.94;92.43
44872;BME280;30602;51.060;17.226;2023-07-02T08:24:16;100582.69;;;19.83;90.80
44872;BME280;30602;51.060;17.226;2023-07-02T08:27:58;100585.64;;;19.58;88.79
44872;BME280;30602;51.060;17.226;2023-07-02T08:32:27;100589.89;;;19.41;90.51
44872;BME280;30602;51.060;17.226;2023-07-02T08:36:32;100591.01;;;19.30;91.36
44872;BME280;30602;51.060;17.226;2023-07-02T08:40:18;100590.06;;;19.35;90.86
44872;BME280;30602;51.060;17.226;2023-07-02T08:44:16;100590.02;;;19.55;90.81
44872;BME280;30602;51.060;17.226;2023-07-02T08:48:03;100588.80;;;19.90;89.00
44872;BME280;30602;51.060;17.226;2023-07-02T08:55:49;100597.09;;;20.00;79.71
44872;BME280;30602;51.060;17.226;2023-07-02T08:59:31;100605.41;;;20.00;81.00
44872;BME280;30602;51.060;17.226;2023-07-02T09:04:24;100614.04;;;19.91;79.49
44872;BME280;30602;51.060;17.226;2023-07-02T09:08:27;100624.13;;;19.89;80.60
44872;BME280;30602;51.060;17.226;2023-07-02T09:12:21;100617.47;;;19.82;79.87
44872;BME280;30602;51.060;17.226;2023-07-02T09:15:58;100611.13;;;19.72;80.71
44872;BME280;30602;51.060;17.226;2023-07-02T09:19:56;100606.50;;;19.45;79.54
44872;BME280;30602;51.060;17.226;2023-07-02T09:23:52;100606.23;;;19.29;81.34
44872;BME280;30602;51.060;17.226;2023-07-02T09:27:12;100618.40;;;19.09;82.26
44872;BME280;30602;51.060;17.226;2023-07-02T09:30:56;100624.85;;;19.10;84.82
44872;BME280;30602;51.060;17.226;2023-07-02T09:34:50;100607.43;;;19.03;84.69
44872;BME280;30602;51.060;17.226;2023-07-02T09:38:15;100606.97;;;19.01;84.71
44872;BME280;30602;51.060;17.226;2023-07-02T09:41:35;100622.30;;;19.06;84.66
44872;BME280;30602;51.060;17.226;2023-07-02T09:46:00;100635.38;;;19.17;84.96
44872;BME280;30602;51.060;17.226;2023-07-02T09:53:37;100650.92;;;19.33;87.29
44872;BME280;30602;51.060;17.226;2023-07-02T09:57:21;100653.02;;;19.36;88.18
44872;BME280;30602;51.060;17.226;2023-07-02T10:01:23;100652.21;;;19.38;87.09
44872;BME280;30602;51.060;17.226;2023-07-02T10:05:38;100651.28;;;19.31;85.10
44872;BME280;30602;51.060;17.226;2023-07-02T10:09:00;100653.56;;;19.39;84.54
44872;BME280;30602;51.060;17.226;2023-07-02T10:12:22;100649.45;;;19.44;84.44
44872;BME280;30602;51.060;17.226;2023-07-02T10:24:20;100648.24;;;19.77;82.47
44872;BME280;30602;51.060;17.226;2023-07-02T10:28:33;100646.52;;;19.84;81.80
44872;BME280;30602;51.060;17.226;2023-07-02T10:31:57;100646.94;;;19.86;83.82
44872;BME280;30602;51.060;17.226;2023-07-02T10:36:22;100649.33;;;19.84;82.67
44872;BME280;30602;51.060;17.226;2023-07-02T10:39:55;100649.80;;;19.86;82.60
44872;BME280;30602;51.060;17.226;2023-07-02T10:43:38;100643.13;;;19.92;82.12
44872;BME280;30602;51.060;17.226;2023-07-02T10:46:59;100647.53;;;19.99;83.01
44872;BME280;30602;51.060;17.226;2023-07-02T10:50:52;100650.16;;;20.08;83.54
44872;BME280;30602;51.060;17.226;2023-07-02T10:59:24;100646.02;;;20.40;81.96
44872;BME280;30602;51.060;17.226;2023-07-02T11:02:46;100639.76;;;20.73;80.68
44872;BME280;30602;51.060;17.226;2023-07-02T11:07:00;100634.51;;;20.97;78.03
44872;BME280;30602;51.060;17.226;2023-07-02T11:10:35;100631.61;;;20.97;77.23
44872;BME280;30602;51.060;17.226;2023-07-02T11:18:11;100633.26;;;20.94;78.04
44872;BME280;30602;51.060;17.226;2023-07-02T11:22:04;100622.57;;;20.97;76.29
44872;BME280;30602;51.060;17.226;2023-07-02T11:25:57;100621.88;;;21.13;77.22
44872;BME280;30602;51.060;17.226;2023-07-02T11:29:40;100619.91;;;21.31;74.99
44872;BME280;30602;51.060;17.226;2023-07-02T11:36:54;100619.80;;;21.54;74.01
44872;BME280;30602;51.060;17.226;2023-07-02T11:40:38;100621.43;;;21.64;71.55
44872;BME280;30602;51.060;17.226;2023-07-02T11:44:42;100620.52;;;22.07;72.40
44872;BME280;30602;51.060;17.226;2023-07-02T11:48:29;100610.12;;;22.27;70.98
44872;BME280;30602;51.060;17.226;2023-07-02T11:51:55;100606.74;;;22.27;67.51
44872;BME280;30602;51.060;17.226;2023-07-02T11:55:17;100607.95;;;22.44;70.31
44872;BME280;30602;51.060;17.226;2023-07-02T11:59:41;100608.62;;;22.72;67.97
44872;BME280;30602;51.060;17.226;2023-07-02T12:04:04;100612.41;;;22.80;67.24
44872;BME280;30602;51.060;17.226;2023-07-02T12:08:36;100608.80;;;22.94;60.81
44872;BME280;30602;51.060;17.226;2023-07-02T12:12:19;100615.46;;;22.91;60.02
44872;BME280;30602;51.060;17.226;2023-07-02T12:15:42;100609.18;;;22.70;59.72
44872;BME280;30602;51.060;17.226;2023-07-02T12:19:35;100604.28;;;22.39;59.64
44872;BME280;30602;51.060;17.226;2023-07-02T12:23:27;100600.01;;;22.82;62.75
44872;BME280;30602;51.060;17.226;2023-07-02T12:27:52;100599.22;;;23.04;63.82
44872;BME280;30602;51.060;17.226;2023-07-02T12:31:57;100600.63;;;23.38;61.63
44872;BME280;30602;51.060;17.226;2023-07-02T12:35:21;100593.57;;;23.43;62.47
44872;BME280;30602;51.060;17.226;2023-07-02T12:39:55;100589.98;;;23.58;60.85
44872;BME280;30602;51.060;17.226;2023-07-02T12:43:18;100586.49;;;23.73;54.48
44872;BME280;30602;51.060;17.226;2023-07-02T12:47:11;100591.70;;;23.91;55.63
44872;BME280;30602;51.060;17.226;2023-07-02T12:50:55;100588.07;;;23.88;56.24
44872;BME280;30602;51.060;17.226;2023-07-02T12:55:36;100592.26;;;24.03;52.58
44872;BME280;30602;51.060;17.226;2023-07-02T12:58:58;100590.69;;;23.95;50.34
44872;BME280;30602;51.060;17.226;2023-07-02T13:02:19;100597.38;;;23.65;53.81
44872;BME280;30602;51.060;17.226;2023-07-02T13:05:40;100603.48;;;23.32;51.44
44872;BME280;30602;51.060;17.226;2023-07-02T13:09:23;100611.05;;;23.03;54.46
44872;BME280;30602;51.060;17.226;2023-07-02T13:13:39;100610.97;;;23.12;52.25
44872;BME280;30602;51.060;17.226;2023-07-02T13:21:11;100605.91;;;23.72;52.61
44872;BME280;30602;51.060;17.226;2023-07-02T13:24:34;100611.81;;;23.74;54.56
44872;BME280;30602;51.060;17.226;2023-07-02T13:28:10;100609.55;;;23.52;52.75
44872;BME280;30602;51.060;17.226;2023-07-02T13:32:31;100607.91;;;23.39;53.53
44872;BME280;30602;51.060;17.226;2023-07-02T13:35:52;100616.56;;;23.32;52.29
44872;BME280;30602;51.060;17.226;2023-07-02T13:39:34;100619.42;;;23.21;53.12
44872;BME280;30602;51.060;17.226;2023-07-02T13:43:07;100618.63;;;23.30;48.90
44872;BME280;30602;51.060;17.226;2023-07-02T13:47:24;100621.20;;;23.40;46.95
44872;BME280;30602;51.060;17.226;2023-07-02T13:51:49;100627.77;;;23.72;45.82
44872;BME280;30602;51.060;17.226;2023-07-02T13:55:42;100620.73;;;23.85;49.09
44872;BME280;30602;51.060;17.226;2023-07-02T13:59:06;100627.80;;;24.12;44.69
44872;BME280;30602;51.060;17.226;2023-07-02T14:03:32;100632.35;;;24.19;45.20
44872;BME280;30602;51.060;17.226;2023-07-02T14:07:26;100626.00;;;24.40;46.41
44872;BME280;30602;51.060;17.226;2023-07-02T14:10:51;100641.19;;;24.44;43.20
44872;BME280;30602;51.060;17.226;2023-07-02T14:14:24;100640.54;;;24.26;44.65
44872;BME280;30602;51.060;17.226;2023-07-02T14:18:40;100641.33;;;24.27;45.34
44872;BME280;30602;51.060;17.226;2023-07-02T14:22:25;100644.34;;;24.22;43.37
44872;BME280;30602;51.060;17.226;2023-07-02T14:26:21;100646.49;;;24.14;43.31
44872;BME280;30602;51.060;17.226;2023-07-02T14:30:04;100648.86;;;24.14;41.78
44872;BME280;30602;51.060;17.226;2023-07-02T14:33:31;100652.45;;;24.24;42.74
44872;BME280;30602;51.060;17.226;2023-07-02T14:37:36;100655.07;;;24.33;43.01
44872;BME280;30602;51.060;17.226;2023-07-02T14:41:18;100659.62;;;24.47;42.70
44872;BME280;30602;51.060;17.226;2023-07-02T14:45:12;100664.29;;;24.35;42.72
44872;BME280;30602;51.060;17.226;2023-07-02T14:48:35;100665.80;;;24.18;42.48
44872;BME280;30602;51.060;17.226;2023-07-02T14:53:25;100659.66;;;24.34;43.08
44872;BME280;30602;51.060;17.226;2023-07-02T14:56:47;100658.50;;;24.32;43.50
44872;BME280;30602;51.060;17.226;2023-07-02T15:00:42;100658.51;;;24.30;42.83
44872;BME280;30602;51.060;17.226;2023-07-02T15:04:25;100663.67;;;24.28;41.60
44872;BME280;30602;51.060;17.226;2023-07-02T15:08:20;100661.77;;;24.20;41.28
44872;BME280;30602;51.060;17.226;2023-07-02T15:13:19;100668.76;;;24.20;42.77
44872;BME280;30602;51.060;17.226;2023-07-02T15:17:03;100663.74;;;24.06;41.66
44872;BME280;30602;51.060;17.226;2023-07-02T15:20:48;100661.09;;;24.10;41.88
44872;BME280;30602;51.060;17.226;2023-07-02T15:24:56;100656.94;;;24.18;48.95
44872;BME280;30602;51.060;17.226;2023-07-02T15:29:08;100662.47;;;24.18;43.81
44872;BME280;30602;51.060;17.226;2023-07-02T15:32:43;100658.17;;;24.21;45.34
44872;BME280;30602;51.060;17.226;2023-07-02T15:36:33;100650.37;;;24.16;45.94
44872;BME280;30602;51.060;17.226;2023-07-02T15:40:49;100654.28;;;24.21;45.34
44872;BME280;30602;51.060;17.226;2023-07-02T15:44:33;100653.99;;;24.30;44.48
44872;BME280;30602;51.060;17.226;2023-07-02T15:48:15;100654.98;;;24.25;45.33
44872;BME280;30602;51.060;17.226;2023-07-02T15:52:30;100659.12;;;24.11;43.95
44872;BME280;30602;51.060;17.226;2023-07-02T15:56:19;100662.87;;;24.17;46.70
44872;BME280;30602;51.060;17.226;2023-07-02T16:00:35;100661.38;;;24.07;45.94
44872;BME280;30602;51.060;17.226;2023-07-02T16:03:58;100668.23;;;24.12;46.43
44872;BME280;30602;51.060;17.226;2023-07-02T16:07:41;100669.59;;;24.09;43.95
44872;BME280;30602;51.060;17.226;2023-07-02T16:11:38;100666.21;;;24.00;44.65
44872;BME280;30602;51.060;17.226;2023-07-02T16:15:07;100666.60;;;24.06;45.72
44872;BME280;30602;51.060;17.226;2023-07-02T16:18:29;100667.87;;;24.13;45.59
44872;BME280;30602;51.060;17.226;2023-07-02T16:21:51;100671.42;;;24.14;44.27
44872;BME280;30602;51.060;17.226;2023-07-02T16:25:37;100676.04;;;24.27;43.82
44872;BME280;30602;51.060;17.226;2023-07-02T16:29:04;100680.20;;;24.37;44.14
44872;BME280;30602;51.060;17.226;2023-07-02T16:32:44;100682.34;;;24.34;42.83
44872;BME280;30602;51.060;17.226;2023-07-02T16:36:49;100679.57;;;24.50;43.27
44872;BME280;30602;51.060;17.226;2023-07-02T16:40:30;100684.12;;;24.42;45.53
44872;BME280;30602;51.060;17.226;2023-07-02T16:44:57;100683.28;;;24.55;43.83
44872;BME280;30602;51.060;17.226;2023-07-02T16:48:49;100686.71;;;24.52;45.07
44872;BME280;30602;51.060;17.226;2023-07-02T16:52:32;100684.07;;;24.51;44.05
44872;BME280;30602;51.060;17.226;2023-07-02T16:56:15;100690.75;;;24.25;43.10
44872;BME280;30602;51.060;17.226;2023-07-02T17:01:13;100692.00;;;23.92;45.19
44872;BME280;30602;51.060;17.226;2023-07-02T17:05:25;100694.59;;;23.77;44.82
44872;BME280;30602;51.060;17.226;2023-07-02T17:09:45;100696.56;;;23.55;46.43
44872;BME280;30602;51.060;17.226;2023-07-02T17:17:22;100702.04;;;22.91;47.84
44872;BME280;30602;51.060;17.226;2023-07-02T17:21:24;100710.84;;;22.61;48.80
44872;BME280;30602;51.060;17.226;2023-07-02T17:25:03;100715.13;;;22.39;50.36
44872;BME280;30602;51.060;17.226;2023-07-02T17:29:10;100711.92;;;22.29;51.23
44872;BME280;30602;51.060;17.226;2023-07-02T17:33:14;100717.38;;;22.35;51.23
44872;BME280;30602;51.060;17.226;2023-07-02T17:37:09;100723.51;;;22.54;51.46
44872;BME280;30602;51.060;17.226;2023-07-02T17:40:41;100721.21;;;22.52;49.46
44872;BME280;30602;51.060;17.226;2023-07-02T17:44:33;100724.70;;;22.39;49.79
44872;BME280;30602;51.060;17.226;2023-07-02T17:48:25;100727.09;;;22.23;50.45
44872;BME280;30602;51.060;17.226;2023-07-02T17:56:14;100737.16;;;21.95;51.80
44872;BME280;30602;51.060;17.226;2023-07-02T17:59:59;100746.66;;;21.85;52.54
44872;BME280;30602;51.060;17.226;2023-07-02T18:04:07;100746.84;;;21.83;53.01
44872;BME280;30602;51.060;17.226;2023-07-02T18:08:45;100752.41;;;21.78;54.15
44872;BME280;30602;51.060;17.226;2023-07-02T18:12:25;100753.40;;;21.65;55.69
44872;BME280;30602;51.060;17.226;2023-07-02T18:16:35;100753.70;;;21.54;57.95
44872;BME280;30602;51.060;17.226;2023-07-02T18:20:10;100767.84;;;21.39;57.47
44872;BME280;30602;51.060;17.226;2023-07-02T18:23:53;100766.80;;;21.38;60.76
44872;BME280;30602;51.060;17.226;2023-07-02T18:32:06;100771.59;;;21.00;62.58
44872;BME280;30602;51.060;17.226;2023-07-02T18:36:23;100775.02;;;20.95;66.11
44872;BME280;30602;51.060;17.226;2023-07-02T18:40:04;100790.27;;;20.77;66.70
44872;BME280;30602;51.060;17.226;2023-07-02T18:43:53;100785.05;;;20.58;66.24
44872;BME280;30602;51.060;17.226;2023-07-02T18:48:10;100792.05;;;20.41;66.69
44872;BME280;30602;51.060;17.226;2023-07-02T18:52:17;100798.63;;;20.06;70.08
44872;BME280;30602;51.060;17.226;2023-07-02T18:56:11;100799.82;;;19.81;72.75
44872;BME280;30602;51.060;17.226;2023-07-02T19:00:08;100806.20;;;19.50;75.22
44872;BME280;30602;51.060;17.226;2023-07-02T19:03:32;100816.60;;;19.34;77.09
44872;BME280;30602;51.060;17.226;2023-07-02T19:07:39;100823.63;;;19.10;77.54
44872;BME280;30602;51.060;17.226;2023-07-02T19:11:34;100829.59;;;18.98;78.75
44872;BME280;30602;51.060;17.226;2023-07-02T19:15:37;100839.48;;;18.70;79.83
44872;BME280;30602;51.060;17.226;2023-07-02T19:20:19;100846.43;;;18.50;81.33
44872;BME280;30602;51.060;17.226;2023-07-02T19:24:05;100852.91;;;18.29;81.49
44872;BME280;30602;51.060;17.226;2023-07-02T19:27:59;100841.53;;;18.09;82.26
44872;BME280;30602;51.060;17.226;2023-07-02T19:31:31;100861.34;;;17.97;81.42
44872;BME280;30602;51.060;17.226;2023-07-02T19:35:44;100867.24;;;17.89;82.70
44872;BME280;30602;51.060;17.226;2023-07-02T19:39:10;100852.26;;;17.68;85.52
44872;BME280;30602;51.060;17.226;2023-07-02T19:43:06;100872.67;;;17.60;86.38
44872;BME280;30602;51.060;17.226;2023-07-02T19:46:53;100873.27;;;17.48;86.78
44872;BME280;30602;51.060;17.226;2023-07-02T19:51:45;100877.94;;;17.37;87.30
44872;BME280;30602;51.060;17.226;2023-07-02T19:55:39;100882.62;;;17.21;87.83
44872;BME280;30602;51.060;17.226;2023-07-02T20:03:24;100898.59;;;17.09;89.53
44872;BME280;30602;51.060;17.226;2023-07-02T20:06:59;100894.98;;;16.97;89.12
44872;BME280;30602;51.060;17.226;2023-07-02T20:11:08;100906.59;;;16.85;90.13
44872;BME280;30602;51.060;17.226;2023-07-02T20:15:06;100909.48;;;16.78;90.69
44872;BME280;30602;51.060;17.226;2023-07-02T20:18:43;100912.51;;;16.66;90.93
44872;BME280;30602;51.060;17.226;2023-07-02T20:22:37;100919.61;;;16.50;91.97
44872;BME280;30602;51.060;17.226;2023-07-02T20:27:23;100915.73;;;16.43;92.43
44872;BME280;30602;51.060;17.226;2023-07-02T20:30:45;100923.91;;;16.20;91.70
44872;BME280;30602;51.060;17.226;2023-07-02T20:34:42;100923.80;;;16.06;92.75
44872;BME280;30602;51.060;17.226;2023-07-02T20:38:34;100929.98;;;16.01;93.89
44872;BME280;30602;51.060;17.226;2023-07-02T20:42:28;100929.95;;;15.99;94.02
44872;BME280;30602;51.060;17.226;2023-07-02T20:45:58;100931.08;;;15.93;94.33
44872;BME280;30602;51.060;17.226;2023-07-02T20:49:25;100933.50;;;15.93;94.68